logo
Search for airport 
image banner adimage banner adimage banner ad
image banner ad

MMEPM - El Palmar

Located in San Buenaventura, Mexico

ICAO - , IATA -

Data provided by Airmate  

General information

Coordinates: N28°0'46" W102°10'43"
Elevation is 1420 feet MSL.
Magnetic variation is 5° East
View others Airports in Coahuila

Operational data

Special qualification required
Current time UTC:
Current local time:
Weather at : - ( 0 km )
METAR: ZMUB 180800Z 33006MPS CAVOK 10/M17 Q1019 NOSIG RMK QFE656.8 14
View NOTAMs / SUP AIP / TFR affecting this airport [VIEW]
Communications frequencies: [VIEW]

Runways:

RWY identifierQFULength (ft)Width (ft)SurfaceLDA (ft)
33338°493431ASPH
15158°493431ASPH

Airport contact information

Address: San Buenaventura Mexico

Satellite view of MMEPM